sensor_id;sensor_type;location;lat;lon;timestamp;P1;durP1;ratioP1;P2;durP2;ratioP2
28714;SDS011;15886;49.170;14.572;2022-11-03T00:01:35;53.67;;;9.57;;
28714;SDS011;15886;49.170;14.572;2022-11-03T00:04:06;23.33;;;7.80;;
28714;SDS011;15886;49.170;14.572;2022-11-03T00:06:35;57.17;;;10.25;;
28714;SDS011;15886;49.170;14.572;2022-11-03T00:09:07;154.50;;;12.05;;
28714;SDS011;15886;49.170;14.572;2022-11-03T00:11:39;25.90;;;9.82;;
28714;SDS011;15886;49.170;14.572;2022-11-03T00:14:19;52.30;;;10.18;;
28714;SDS011;15886;49.170;14.572;2022-11-03T00:17:07;31.20;;;10.02;;
28714;SDS011;15886;49.170;14.572;2022-11-03T00:19:44;154.23;;;12.35;;
28714;SDS011;15886;49.170;14.572;2022-11-03T00:22:13;124.88;;;12.38;;
28714;SDS011;15886;49.170;14.572;2022-11-03T00:24:41;55.53;;;9.23;;
28714;SDS011;15886;49.170;14.572;2022-11-03T00:27:10;70.60;;;10.07;;
28714;SDS011;15886;49.170;14.572;2022-11-03T00:29:38;47.60;;;8.65;;
28714;SDS011;15886;49.170;14.572;2022-11-03T00:32:08;20.30;;;8.15;;
28714;SDS011;15886;49.170;14.572;2022-11-03T00:34:36;43.17;;;8.85;;
28714;SDS011;15886;49.170;14.572;2022-11-03T00:37:05;72.93;;;8.55;;
28714;SDS011;15886;49.170;14.572;2022-11-03T00:39:33;54.38;;;9.00;;
28714;SDS011;15886;49.170;14.572;2022-11-03T00:42:04;149.40;;;11.35;;
28714;SDS011;15886;49.170;14.572;2022-11-03T00:44:33;132.10;;;9.73;;
28714;SDS011;15886;49.170;14.572;2022-11-03T00:47:01;194.00;;;11.18;;
28714;SDS011;15886;49.170;14.572;2022-11-03T00:49:29;171.75;;;10.95;;
28714;SDS011;15886;49.170;14.572;2022-11-03T00:52:02;38.03;;;7.45;;
28714;SDS011;15886;49.170;14.572;2022-11-03T00:54:33;72.32;;;9.02;;
28714;SDS011;15886;49.170;14.572;2022-11-03T00:57:17;116.45;;;10.57;;
28714;SDS011;15886;49.170;14.572;2022-11-03T00:59:45;128.57;;;9.98;;
28714;SDS011;15886;49.170;14.572;2022-11-03T01:02:14;159.43;;;10.00;;
28714;SDS011;15886;49.170;14.572;2022-11-03T01:04:42;211.13;;;10.85;;
28714;SDS011;15886;49.170;14.572;2022-11-03T01:07:29;159.05;;;9.60;;
28714;SDS011;15886;49.170;14.572;2022-11-03T01:09:57;119.22;;;9.13;;
28714;SDS011;15886;49.170;14.572;2022-11-03T01:12:26;37.47;;;6.85;;
28714;SDS011;15886;49.170;14.572;2022-11-03T01:14:55;27.27;;;6.60;;
28714;SDS011;15886;49.170;14.572;2022-11-03T01:17:24;37.88;;;6.35;;
28714;SDS011;15886;49.170;14.572;2022-11-03T01:19:52;40.80;;;7.57;;
28714;SDS011;15886;49.170;14.572;2022-11-03T01:22:21;22.20;;;8.05;;
28714;SDS011;15886;49.170;14.572;2022-11-03T01:24:50;40.78;;;7.72;;
28714;SDS011;15886;49.170;14.572;2022-11-03T01:27:19;80.07;;;7.55;;
28714;SDS011;15886;49.170;14.572;2022-11-03T01:29:50;83.95;;;8.57;;
28714;SDS011;15886;49.170;14.572;2022-11-03T01:32:19;48.83;;;7.03;;
28714;SDS011;15886;49.170;14.572;2022-11-03T01:34:47;79.32;;;7.80;;
28714;SDS011;15886;49.170;14.572;2022-11-03T01:37:16;26.33;;;8.02;;
28714;SDS011;15886;49.170;14.572;2022-11-03T01:39:44;79.35;;;10.65;;
28714;SDS011;15886;49.170;14.572;2022-11-03T01:42:13;112.22;;;11.32;;
28714;SDS011;15886;49.170;14.572;2022-11-03T01:44:46;196.30;;;12.13;;
28714;SDS011;15886;49.170;14.572;2022-11-03T01:47:22;290.67;;;14.68;;
28714;SDS011;15886;49.170;14.572;2022-11-03T01:50:02;172.18;;;11.63;;
28714;SDS011;15886;49.170;14.572;2022-11-03T01:52:43;321.20;;;15.48;;
28714;SDS011;15886;49.170;14.572;2022-11-03T01:55:24;319.27;;;14.45;;
28714;SDS011;15886;49.170;14.572;2022-11-03T01:57:55;294.90;;;14.82;;
28714;SDS011;15886;49.170;14.572;2022-11-03T02:00:27;234.77;;;12.05;;
28714;SDS011;15886;49.170;14.572;2022-11-03T02:02:59;435.92;;;19.65;;
28714;SDS011;15886;49.170;14.572;2022-11-03T02:05:31;456.05;;;17.75;;
28714;SDS011;15886;49.170;14.572;2022-11-03T02:08:08;205.75;;;11.57;;
28714;SDS011;15886;49.170;14.572;2022-11-03T02:10:38;154.70;;;10.38;;
28714;SDS011;15886;49.170;14.572;2022-11-03T02:13:27;227.68;;;12.55;;
28714;SDS011;15886;49.170;14.572;2022-11-03T02:15:56;205.40;;;11.35;;
28714;SDS011;15886;49.170;14.572;2022-11-03T02:18:27;55.45;;;8.25;;
28714;SDS011;15886;49.170;14.572;2022-11-03T02:21:19;48.35;;;8.32;;
28714;SDS011;15886;49.170;14.572;2022-11-03T02:24:23;116.93;;;10.05;;
28714;SDS011;15886;49.170;14.572;2022-11-03T02:26:55;126.32;;;9.05;;
28714;SDS011;15886;49.170;14.572;2022-11-03T02:29:45;84.97;;;8.68;;
28714;SDS011;15886;49.170;14.572;2022-11-03T02:32:24;138.05;;;10.27;;
28714;SDS011;15886;49.170;14.572;2022-11-03T02:34:59;149.48;;;9.68;;
28714;SDS011;15886;49.170;14.572;2022-11-03T02:37:35;163.02;;;9.50;;
28714;SDS011;15886;49.170;14.572;2022-11-03T02:40:11;74.30;;;8.05;;
28714;SDS011;15886;49.170;14.572;2022-11-03T02:42:46;102.20;;;7.88;;
28714;SDS011;15886;49.170;14.572;2022-11-03T02:45:20;61.38;;;6.60;;
28714;SDS011;15886;49.170;14.572;2022-11-03T02:57:00;70.32;;;7.22;;
28714;SDS011;15886;49.170;14.572;2022-11-03T02:59:41;149.70;;;8.02;;
28714;SDS011;15886;49.170;14.572;2022-11-03T03:02:17;122.57;;;8.77;;
28714;SDS011;15886;49.170;14.572;2022-11-03T03:04:54;83.43;;;6.55;;
28714;SDS011;15886;49.170;14.572;2022-11-03T03:07:29;158.63;;;9.23;;
28714;SDS011;15886;49.170;14.572;2022-11-03T03:10:01;147.20;;;8.20;;
28714;SDS011;15886;49.170;14.572;2022-11-03T03:12:40;103.85;;;8.90;;
28714;SDS011;15886;49.170;14.572;2022-11-03T03:15:11;119.40;;;8.15;;
28714;SDS011;15886;49.170;14.572;2022-11-03T03:17:43;134.95;;;8.90;;
28714;SDS011;15886;49.170;14.572;2022-11-03T03:20:19;162.23;;;9.63;;
28714;SDS011;15886;49.170;14.572;2022-11-03T03:22:55;191.75;;;10.57;;
28714;SDS011;15886;49.170;14.572;2022-11-03T03:25:35;161.52;;;9.00;;
28714;SDS011;15886;49.170;14.572;2022-11-03T03:31:16;208.15;;;10.85;;
28714;SDS011;15886;49.170;14.572;2022-11-03T03:33:50;301.35;;;13.57;;
28714;SDS011;15886;49.170;14.572;2022-11-03T03:36:21;186.82;;;10.30;;
28714;SDS011;15886;49.170;14.572;2022-11-03T03:38:53;373.65;;;13.82;;
28714;SDS011;15886;49.170;14.572;2022-11-03T03:41:23;213.07;;;10.50;;
28714;SDS011;15886;49.170;14.572;2022-11-03T03:43:53;163.68;;;9.68;;
28714;SDS011;15886;49.170;14.572;2022-11-03T03:46:22;225.60;;;11.20;;
28714;SDS011;15886;49.170;14.572;2022-11-03T03:48:52;156.00;;;9.07;;
28714;SDS011;15886;49.170;14.572;2022-11-03T03:51:21;151.82;;;9.18;;
28714;SDS011;15886;49.170;14.572;2022-11-03T03:53:50;82.07;;;7.22;;
28714;SDS011;15886;49.170;14.572;2022-11-03T03:56:25;60.55;;;7.65;;
28714;SDS011;15886;49.170;14.572;2022-11-03T03:58:54;185.27;;;9.20;;
28714;SDS011;15886;49.170;14.572;2022-11-03T04:01:23;166.60;;;35.40;;
28714;SDS011;15886;49.170;14.572;2022-11-03T04:03:51;230.15;;;45.08;;
28714;SDS011;15886;49.170;14.572;2022-11-03T04:06:19;86.60;;;10.20;;
28714;SDS011;15886;49.170;14.572;2022-11-03T04:08:48;194.95;;;27.63;;
28714;SDS011;15886;49.170;14.572;2022-11-03T04:11:16;95.95;;;22.00;;
28714;SDS011;15886;49.170;14.572;2022-11-03T04:14:03;88.63;;;20.40;;
28714;SDS011;15886;49.170;14.572;2022-11-03T04:16:49;113.65;;;30.98;;
28714;SDS011;15886;49.170;14.572;2022-11-03T04:19:36;118.63;;;44.63;;
28714;SDS011;15886;49.170;14.572;2022-11-03T04:22:25;124.50;;;36.55;;
28714;SDS011;15886;49.170;14.572;2022-11-03T04:24:54;97.63;;;21.77;;
28714;SDS011;15886;49.170;14.572;2022-11-03T04:27:29;55.35;;;25.17;;
28714;SDS011;15886;49.170;14.572;2022-11-03T04:30:14;62.03;;;18.77;;
28714;SDS011;15886;49.170;14.572;2022-11-03T04:32:44;36.27;;;10.73;;
28714;SDS011;15886;49.170;14.572;2022-11-03T04:35:14;78.22;;;12.23;;
28714;SDS011;15886;49.170;14.572;2022-11-03T04:37:50;53.55;;;12.93;;
28714;SDS011;15886;49.170;14.572;2022-11-03T04:40:22;52.75;;;8.30;;
28714;SDS011;15886;49.170;14.572;2022-11-03T04:42:50;54.85;;;8.10;;
28714;SDS011;15886;49.170;14.572;2022-11-03T04:45:22;48.28;;;9.25;;
28714;SDS011;15886;49.170;14.572;2022-11-03T04:47:51;40.08;;;7.93;;
28714;SDS011;15886;49.170;14.572;2022-11-03T04:50:21;76.65;;;10.07;;
28714;SDS011;15886;49.170;14.572;2022-11-03T04:52:52;37.75;;;9.07;;
28714;SDS011;15886;49.170;14.572;2022-11-03T04:55:22;70.28;;;9.52;;
28714;SDS011;15886;49.170;14.572;2022-11-03T04:57:53;57.75;;;8.00;;
28714;SDS011;15886;49.170;14.572;2022-11-03T05:00:21;63.88;;;8.00;;
28714;SDS011;15886;49.170;14.572;2022-11-03T05:02:50;103.03;;;8.32;;
28714;SDS011;15886;49.170;14.572;2022-11-03T05:05:22;81.03;;;7.72;;
28714;SDS011;15886;49.170;14.572;2022-11-03T05:07:53;147.05;;;8.95;;
28714;SDS011;15886;49.170;14.572;2022-11-03T05:10:26;130.80;;;8.77;;
28714;SDS011;15886;49.170;14.572;2022-11-03T05:12:55;134.63;;;9.98;;
28714;SDS011;15886;49.170;14.572;2022-11-03T05:17:56;102.80;;;29.60;;
28714;SDS011;15886;49.170;14.572;2022-11-03T05:22:57;465.73;;;112.43;;
28714;SDS011;15886;49.170;14.572;2022-11-03T05:25:48;473.40;;;107.88;;
28714;SDS011;15886;49.170;14.572;2022-11-03T05:28:20;277.38;;;47.72;;
28714;SDS011;15886;49.170;14.572;2022-11-03T05:30:49;181.35;;;37.60;;
28714;SDS011;15886;49.170;14.572;2022-11-03T05:35:56;118.63;;;10.60;;
28714;SDS011;15886;49.170;14.572;2022-11-03T05:38:26;81.18;;;9.13;;
28714;SDS011;15886;49.170;14.572;2022-11-03T05:40:56;107.20;;;14.15;;
28714;SDS011;15886;49.170;14.572;2022-11-03T05:43:25;131.23;;;15.80;;
28714;SDS011;15886;49.170;14.572;2022-11-03T05:45:56;160.98;;;16.08;;
28714;SDS011;15886;49.170;14.572;2022-11-03T05:48:35;75.25;;;9.80;;
28714;SDS011;15886;49.170;14.572;2022-11-03T05:51:14;639.25;;;163.88;;
28714;SDS011;15886;49.170;14.572;2022-11-03T05:53:45;494.42;;;107.43;;
28714;SDS011;15886;49.170;14.572;2022-11-03T05:56:15;396.70;;;81.30;;
28714;SDS011;15886;49.170;14.572;2022-11-03T05:58:45;308.02;;;47.75;;
28714;SDS011;15886;49.170;14.572;2022-11-03T06:03:44;240.48;;;16.30;;
28714;SDS011;15886;49.170;14.572;2022-11-03T06:06:21;277.23;;;17.83;;
28714;SDS011;15886;49.170;14.572;2022-11-03T06:08:56;341.23;;;25.77;;
28714;SDS011;15886;49.170;14.572;2022-11-03T06:11:27;272.15;;;24.65;;
28714;SDS011;15886;49.170;14.572;2022-11-03T06:13:59;235.60;;;20.52;;
28714;SDS011;15886;49.170;14.572;2022-11-03T06:16:36;281.95;;;19.30;;
28714;SDS011;15886;49.170;14.572;2022-11-03T06:19:52;222.10;;;18.00;;
28714;SDS011;15886;49.170;14.572;2022-11-03T06:21:56;171.93;;;12.80;;
28714;SDS011;15886;49.170;14.572;2022-11-03T06:24:25;134.07;;;11.20;;
28714;SDS011;15886;49.170;14.572;2022-11-03T06:26:56;53.25;;;7.32;;
28714;SDS011;15886;49.170;14.572;2022-11-03T06:29:24;61.65;;;10.32;;
28714;SDS011;15886;49.170;14.572;2022-11-03T06:31:53;42.15;;;8.85;;
28714;SDS011;15886;49.170;14.572;2022-11-03T06:34:37;65.93;;;10.02;;
28714;SDS011;15886;49.170;14.572;2022-11-03T06:37:10;266.33;;;70.10;;
28714;SDS011;15886;49.170;14.572;2022-11-03T06:39:40;247.82;;;80.97;;
28714;SDS011;15886;49.170;14.572;2022-11-03T06:42:10;220.93;;;50.30;;
28714;SDS011;15886;49.170;14.572;2022-11-03T06:44:44;110.65;;;26.50;;
28714;SDS011;15886;49.170;14.572;2022-11-03T06:47:22;103.03;;;23.58;;
28714;SDS011;15886;49.170;14.572;2022-11-03T06:49:52;127.35;;;19.88;;
28714;SDS011;15886;49.170;14.572;2022-11-03T06:52:55;125.32;;;22.35;;
28714;SDS011;15886;49.170;14.572;2022-11-03T06:55:21;135.80;;;12.27;;
28714;SDS011;15886;49.170;14.572;2022-11-03T06:57:52;102.82;;;23.52;;
28714;SDS011;15886;49.170;14.572;2022-11-03T07:00:21;130.63;;;15.75;;
28714;SDS011;15886;49.170;14.572;2022-11-03T07:05:34;98.90;;;14.60;;
28714;SDS011;15886;49.170;14.572;2022-11-03T07:08:10;44.45;;;9.05;;
28714;SDS011;15886;49.170;14.572;2022-11-03T07:10:40;92.65;;;11.88;;
28714;SDS011;15886;49.170;14.572;2022-11-03T07:13:10;125.13;;;12.38;;
28714;SDS011;15886;49.170;14.572;2022-11-03T07:15:39;35.35;;;8.82;;
28714;SDS011;15886;49.170;14.572;2022-11-03T07:18:18;53.15;;;8.73;;
28714;SDS011;15886;49.170;14.572;2022-11-03T07:20:48;52.28;;;11.00;;
28714;SDS011;15886;49.170;14.572;2022-11-03T07:23:18;17.70;;;7.75;;
28714;SDS011;15886;49.170;14.572;2022-11-03T07:25:50;30.35;;;7.13;;
28714;SDS011;15886;49.170;14.572;2022-11-03T07:28:20;19.42;;;6.88;;
28714;SDS011;15886;49.170;14.572;2022-11-03T07:30:49;36.90;;;14.18;;
28714;SDS011;15886;49.170;14.572;2022-11-03T07:33:19;19.13;;;10.02;;
28714;SDS011;15886;49.170;14.572;2022-11-03T07:35:48;24.55;;;11.48;;
28714;SDS011;15886;49.170;14.572;2022-11-03T07:38:36;18.83;;;11.13;;
28714;SDS011;15886;49.170;14.572;2022-11-03T07:41:05;166.52;;;57.00;;
28714;SDS011;15886;49.170;14.572;2022-11-03T07:43:36;94.15;;;28.38;;
28714;SDS011;15886;49.170;14.572;2022-11-03T07:46:04;48.60;;;19.38;;
28714;SDS011;15886;49.170;14.572;2022-11-03T07:48:35;34.80;;;14.02;;
28714;SDS011;15886;49.170;14.572;2022-11-03T07:53:54;40.22;;;19.15;;
28714;SDS011;15886;49.170;14.572;2022-11-03T07:56:28;41.15;;;19.70;;
28714;SDS011;15886;49.170;14.572;2022-11-03T07:59:00;38.13;;;16.92;;
28714;SDS011;15886;49.170;14.572;2022-11-03T08:01:33;22.23;;;9.73;;
28714;SDS011;15886;49.170;14.572;2022-11-03T08:04:04;32.58;;;13.50;;
28714;SDS011;15886;49.170;14.572;2022-11-03T08:06:33;28.23;;;12.07;;
28714;SDS011;15886;49.170;14.572;2022-11-03T08:09:02;33.40;;;16.80;;
28714;SDS011;15886;49.170;14.572;2022-11-03T08:11:30;33.67;;;16.05;;
28714;SDS011;15886;49.170;14.572;2022-11-03T08:13:58;31.83;;;13.65;;
28714;SDS011;15886;49.170;14.572;2022-11-03T08:16:26;18.40;;;8.48;;
28714;SDS011;15886;49.170;14.572;2022-11-03T08:18:54;17.27;;;7.82;;
28714;SDS011;15886;49.170;14.572;2022-11-03T08:21:22;16.48;;;7.20;;
28714;SDS011;15886;49.170;14.572;2022-11-03T08:23:50;12.27;;;6.00;;
28714;SDS011;15886;49.170;14.572;2022-11-03T08:26:19;16.85;;;7.18;;
28714;SDS011;15886;49.170;14.572;2022-11-03T08:28:47;17.08;;;7.22;;
28714;SDS011;15886;49.170;14.572;2022-11-03T08:31:15;19.42;;;8.52;;
28714;SDS011;15886;49.170;14.572;2022-11-03T08:33:44;12.93;;;6.10;;
28714;SDS011;15886;49.170;14.572;2022-11-03T08:36:12;13.13;;;6.75;;
28714;SDS011;15886;49.170;14.572;2022-11-03T08:38:40;22.95;;;9.73;;
28714;SDS011;15886;49.170;14.572;2022-11-03T08:41:08;19.73;;;9.40;;
28714;SDS011;15886;49.170;14.572;2022-11-03T08:43:36;18.00;;;7.25;;
28714;SDS011;15886;49.170;14.572;2022-11-03T08:46:04;13.70;;;4.60;;
28714;SDS011;15886;49.170;14.572;2022-11-03T08:48:38;13.77;;;4.72;;
28714;SDS011;15886;49.170;14.572;2022-11-03T08:51:06;10.32;;;4.07;;
28714;SDS011;15886;49.170;14.572;2022-11-03T08:53:36;9.85;;;3.30;;
28714;SDS011;15886;49.170;14.572;2022-11-03T08:56:04;10.27;;;4.18;;
28714;SDS011;15886;49.170;14.572;2022-11-03T08:58:33;9.70;;;4.85;;
28714;SDS011;15886;49.170;14.572;2022-11-03T09:01:01;12.52;;;3.92;;
28714;SDS011;15886;49.170;14.572;2022-11-03T09:03:29;11.52;;;5.43;;
28714;SDS011;15886;49.170;14.572;2022-11-03T09:05:58;9.75;;;5.57;;
28714;SDS011;15886;49.170;14.572;2022-11-03T09:08:26;7.68;;;3.60;;
28714;SDS011;15886;49.170;14.572;2022-11-03T09:11:14;9.20;;;3.42;;
28714;SDS011;15886;49.170;14.572;2022-11-03T09:13:42;7.97;;;3.22;;
28714;SDS011;15886;49.170;14.572;2022-11-03T09:16:10;5.53;;;2.88;;
28714;SDS011;15886;49.170;14.572;2022-11-03T09:18:38;7.35;;;3.00;;
28714;SDS011;15886;49.170;14.572;2022-11-03T09:21:06;6.72;;;3.58;;
28714;SDS011;15886;49.170;14.572;2022-11-03T09:23:34;6.53;;;2.97;;
28714;SDS011;15886;49.170;14.572;2022-11-03T09:26:03;8.55;;;2.90;;
28714;SDS011;15886;49.170;14.572;2022-11-03T09:28:32;8.30;;;2.95;;
28714;SDS011;15886;49.170;14.572;2022-11-03T09:31:00;10.07;;;3.42;;
28714;SDS011;15886;49.170;14.572;2022-11-03T09:33:29;8.32;;;3.72;;
28714;SDS011;15886;49.170;14.572;2022-11-03T09:35:57;8.77;;;3.60;;
28714;SDS011;15886;49.170;14.572;2022-11-03T09:38:25;8.18;;;3.38;;
28714;SDS011;15886;49.170;14.572;2022-11-03T09:40:54;11.68;;;3.22;;
28714;SDS011;15886;49.170;14.572;2022-11-03T09:43:23;7.60;;;3.03;;
28714;SDS011;15886;49.170;14.572;2022-11-03T09:45:51;7.22;;;3.42;;
28714;SDS011;15886;49.170;14.572;2022-11-03T09:48:20;7.38;;;3.47;;
28714;SDS011;15886;49.170;14.572;2022-11-03T09:50:48;10.68;;;3.35;;
28714;SDS011;15886;49.170;14.572;2022-11-03T09:53:18;6.25;;;3.10;;
28714;SDS011;15886;49.170;14.572;2022-11-03T09:55:46;6.53;;;3.55;;
28714;SDS011;15886;49.170;14.572;2022-11-03T09:58:15;6.25;;;3.10;;
28714;SDS011;15886;49.170;14.572;2022-11-03T10:00:43;7.13;;;3.15;;
28714;SDS011;15886;49.170;14.572;2022-11-03T10:03:15;7.28;;;3.30;;
28714;SDS011;15886;49.170;14.572;2022-11-03T10:05:44;5.43;;;3.80;;
28714;SDS011;15886;49.170;14.572;2022-11-03T10:08:17;8.40;;;3.40;;
28714;SDS011;15886;49.170;14.572;2022-11-03T10:10:47;9.63;;;3.77;;
28714;SDS011;15886;49.170;14.572;2022-11-03T10:13:20;10.13;;;4.25;;
28714;SDS011;15886;49.170;14.572;2022-11-03T10:15:49;6.72;;;3.70;;
28714;SDS011;15886;49.170;14.572;2022-11-03T10:18:17;7.93;;;3.30;;
28714;SDS011;15886;49.170;14.572;2022-11-03T10:20:45;7.40;;;3.65;;
28714;SDS011;15886;49.170;14.572;2022-11-03T10:23:13;7.57;;;3.90;;
28714;SDS011;15886;49.170;14.572;2022-11-03T10:25:42;6.53;;;4.03;;
28714;SDS011;15886;49.170;14.572;2022-11-03T10:28:20;12.57;;;5.40;;
28714;SDS011;15886;49.170;14.572;2022-11-03T10:33:41;6.97;;;3.97;;
28714;SDS011;15886;49.170;14.572;2022-11-03T10:38:46;10.60;;;4.88;;
28714;SDS011;15886;49.170;14.572;2022-11-03T10:41:15;9.55;;;4.22;;
28714;SDS011;15886;49.170;14.572;2022-11-03T10:43:54;7.65;;;4.20;;
28714;SDS011;15886;49.170;14.572;2022-11-03T10:46:25;11.55;;;5.45;;
28714;SDS011;15886;49.170;14.572;2022-11-03T10:49:14;10.25;;;4.72;;
28714;SDS011;15886;49.170;14.572;2022-11-03T10:51:44;9.15;;;4.88;;
28714;SDS011;15886;49.170;14.572;2022-11-03T10:54:14;7.88;;;5.15;;
28714;SDS011;15886;49.170;14.572;2022-11-03T10:56:43;11.93;;;5.07;;
28714;SDS011;15886;49.170;14.572;2022-11-03T11:01:43;9.15;;;5.10;;
28714;SDS011;15886;49.170;14.572;2022-11-03T11:04:15;10.85;;;5.03;;
28714;SDS011;15886;49.170;14.572;2022-11-03T11:06:43;13.02;;;5.25;;
28714;SDS011;15886;49.170;14.572;2022-11-03T11:09:13;10.20;;;4.88;;
28714;SDS011;15886;49.170;14.572;2022-11-03T11:16:55;10.07;;;6.10;;
28714;SDS011;15886;49.170;14.572;2022-11-03T11:19:24;8.82;;;4.93;;
28714;SDS011;15886;49.170;14.572;2022-11-03T11:29:58;9.20;;;5.20;;
28714;SDS011;15886;49.170;14.572;2022-11-03T11:35:08;7.28;;;4.22;;
28714;SDS011;15886;49.170;14.572;2022-11-03T11:37:36;9.05;;;5.05;;
28714;SDS011;15886;49.170;14.572;2022-11-03T11:48:16;11.70;;;4.65;;
28714;SDS011;15886;49.170;14.572;2022-11-03T11:50:44;13.13;;;5.95;;
28714;SDS011;15886;49.170;14.572;2022-11-03T11:53:17;11.52;;;4.80;;
28714;SDS011;15886;49.170;14.572;2022-11-03T11:55:47;8.13;;;5.20;;
28714;SDS011;15886;49.170;14.572;2022-11-03T12:00:49;9.45;;;5.32;;
28714;SDS011;15886;49.170;14.572;2022-11-03T12:03:20;9.90;;;5.00;;
28714;SDS011;15886;49.170;14.572;2022-11-03T12:05:49;10.85;;;4.70;;
28714;SDS011;15886;49.170;14.572;2022-11-03T12:08:18;10.63;;;5.18;;
28714;SDS011;15886;49.170;14.572;2022-11-03T12:10:54;8.25;;;4.82;;
28714;SDS011;15886;49.170;14.572;2022-11-03T12:16:06;14.77;;;5.85;;
28714;SDS011;15886;49.170;14.572;2022-11-03T12:18:41;9.45;;;5.70;;
28714;SDS011;15886;49.170;14.572;2022-11-03T12:21:43;12.80;;;6.30;;
28714;SDS011;15886;49.170;14.572;2022-11-03T12:24:23;17.05;;;6.97;;
28714;SDS011;15886;49.170;14.572;2022-11-03T12:26:49;14.02;;;4.72;;
28714;SDS011;15886;49.170;14.572;2022-11-03T12:29:17;11.13;;;5.68;;
28714;SDS011;15886;49.170;14.572;2022-11-03T12:31:46;12.68;;;5.90;;
28714;SDS011;15886;49.170;14.572;2022-11-03T12:34:14;7.95;;;4.75;;
28714;SDS011;15886;49.170;14.572;2022-11-03T12:36:43;10.05;;;4.90;;
28714;SDS011;15886;49.170;14.572;2022-11-03T12:39:11;10.98;;;5.22;;
28714;SDS011;15886;49.170;14.572;2022-11-03T12:41:39;11.55;;;5.53;;
28714;SDS011;15886;49.170;14.572;2022-11-03T12:44:08;12.13;;;5.53;;
28714;SDS011;15886;49.170;14.572;2022-11-03T12:46:36;13.70;;;5.65;;
28714;SDS011;15886;49.170;14.572;2022-11-03T12:49:04;8.18;;;4.65;;
28714;SDS011;15886;49.170;14.572;2022-11-03T12:51:32;7.45;;;4.35;;
28714;SDS011;15886;49.170;14.572;2022-11-03T12:54:00;9.80;;;4.40;;
28714;SDS011;15886;49.170;14.572;2022-11-03T12:56:28;7.75;;;4.93;;
28714;SDS011;15886;49.170;14.572;2022-11-03T12:58:56;9.82;;;4.93;;
28714;SDS011;15886;49.170;14.572;2022-11-03T13:01:25;9.98;;;4.80;;
28714;SDS011;15886;49.170;14.572;2022-11-03T13:03:53;9.90;;;4.75;;
28714;SDS011;15886;49.170;14.572;2022-11-03T13:06:21;10.70;;;5.03;;
28714;SDS011;15886;49.170;14.572;2022-11-03T13:08:49;10.75;;;4.88;;
28714;SDS011;15886;49.170;14.572;2022-11-03T13:11:17;20.30;;;5.30;;
28714;SDS011;15886;49.170;14.572;2022-11-03T13:14:04;12.82;;;5.30;;
28714;SDS011;15886;49.170;14.572;2022-11-03T13:16:32;8.95;;;4.45;;
28714;SDS011;15886;49.170;14.572;2022-11-03T13:19:00;8.70;;;4.93;;
28714;SDS011;15886;49.170;14.572;2022-11-03T13:21:28;8.98;;;4.97;;
28714;SDS011;15886;49.170;14.572;2022-11-03T13:23:57;12.50;;;4.68;;
28714;SDS011;15886;49.170;14.572;2022-11-03T13:26:25;9.68;;;4.75;;
28714;SDS011;15886;49.170;14.572;2022-11-03T13:28:53;6.10;;;4.70;;
28714;SDS011;15886;49.170;14.572;2022-11-03T13:31:22;13.00;;;4.93;;
28714;SDS011;15886;49.170;14.572;2022-11-03T13:33:50;9.55;;;5.13;;
28714;SDS011;15886;49.170;14.572;2022-11-03T13:36:18;9.88;;;4.85;;
28714;SDS011;15886;49.170;14.572;2022-11-03T13:38:46;9.20;;;4.50;;
28714;SDS011;15886;49.170;14.572;2022-11-03T13:41:14;9.30;;;4.70;;
28714;SDS011;15886;49.170;14.572;2022-11-03T13:43:42;8.00;;;4.50;;
28714;SDS011;15886;49.170;14.572;2022-11-03T13:46:10;9.95;;;5.95;;
28714;SDS011;15886;49.170;14.572;2022-11-03T13:48:38;9.25;;;5.15;;
28714;SDS011;15886;49.170;14.572;2022-11-03T13:51:29;10.02;;;5.03;;
28714;SDS011;15886;49.170;14.572;2022-11-03T13:53:57;10.45;;;4.50;;
28714;SDS011;15886;49.170;14.572;2022-11-03T13:56:45;8.75;;;5.20;;
28714;SDS011;15886;49.170;14.572;2022-11-03T13:59:34;12.60;;;7.15;;
28714;SDS011;15886;49.170;14.572;2022-11-03T14:02:02;12.05;;;6.32;;
28714;SDS011;15886;49.170;14.572;2022-11-03T14:04:50;10.65;;;5.57;;
28714;SDS011;15886;49.170;14.572;2022-11-03T14:07:18;10.55;;;5.18;;
28714;SDS011;15886;49.170;14.572;2022-11-03T14:09:46;12.43;;;6.25;;
28714;SDS011;15886;49.170;14.572;2022-11-03T14:12:14;11.85;;;4.93;;
28714;SDS011;15886;49.170;14.572;2022-11-03T14:14:58;12.65;;;5.53;;
28714;SDS011;15886;49.170;14.572;2022-11-03T14:17:27;12.25;;;5.72;;
28714;SDS011;15886;49.170;14.572;2022-11-03T14:19:55;10.00;;;7.53;;
28714;SDS011;15886;49.170;14.572;2022-11-03T14:22:26;14.68;;;10.77;;
28714;SDS011;15886;49.170;14.572;2022-11-03T14:24:59;11.95;;;6.97;;
28714;SDS011;15886;49.170;14.572;2022-11-03T14:27:27;14.68;;;6.07;;
28714;SDS011;15886;49.170;14.572;2022-11-03T14:29:56;10.40;;;5.45;;
28714;SDS011;15886;49.170;14.572;2022-11-03T14:32:24;12.13;;;5.07;;
28714;SDS011;15886;49.170;14.572;2022-11-03T14:34:52;9.43;;;5.32;;
28714;SDS011;15886;49.170;14.572;2022-11-03T14:37:21;12.10;;;6.28;;
28714;SDS011;15886;49.170;14.572;2022-11-03T14:39:51;10.07;;;5.80;;
28714;SDS011;15886;49.170;14.572;2022-11-03T14:42:21;10.35;;;5.57;;
28714;SDS011;15886;49.170;14.572;2022-11-03T14:44:50;11.40;;;6.90;;
28714;SDS011;15886;49.170;14.572;2022-11-03T14:47:18;18.63;;;9.15;;
28714;SDS011;15886;49.170;14.572;2022-11-03T14:49:47;16.73;;;9.15;;
28714;SDS011;15886;49.170;14.572;2022-11-03T14:52:16;16.02;;;9.25;;
28714;SDS011;15886;49.170;14.572;2022-11-03T14:54:44;17.55;;;9.30;;
28714;SDS011;15886;49.170;14.572;2022-11-03T14:57:13;13.57;;;8.20;;
28714;SDS011;15886;49.170;14.572;2022-11-03T14:59:43;25.60;;;14.73;;
28714;SDS011;15886;49.170;14.572;2022-11-03T15:02:14;21.85;;;14.60;;
28714;SDS011;15886;49.170;14.572;2022-11-03T15:04:42;29.45;;;18.42;;
28714;SDS011;15886;49.170;14.572;2022-11-03T15:07:11;33.28;;;21.60;;
28714;SDS011;15886;49.170;14.572;2022-11-03T15:09:39;17.98;;;12.48;;
28714;SDS011;15886;49.170;14.572;2022-11-03T15:12:08;19.85;;;12.38;;
28714;SDS011;15886;49.170;14.572;2022-11-03T15:14:36;20.83;;;12.10;;
28714;SDS011;15886;49.170;14.572;2022-11-03T15:17:04;24.95;;;14.60;;
28714;SDS011;15886;49.170;14.572;2022-11-03T15:19:33;76.70;;;48.95;;
28714;SDS011;15886;49.170;14.572;2022-11-03T15:22:01;70.13;;;49.95;;
28714;SDS011;15886;49.170;14.572;2022-11-03T15:24:29;49.83;;;32.28;;
28714;SDS011;15886;49.170;14.572;2022-11-03T15:27:17;42.05;;;24.67;;
28714;SDS011;15886;49.170;14.572;2022-11-03T15:29:45;28.20;;;19.70;;
28714;SDS011;15886;49.170;14.572;2022-11-03T15:32:13;23.08;;;14.95;;
28714;SDS011;15886;49.170;14.572;2022-11-03T15:34:42;21.40;;;12.63;;
28714;SDS011;15886;49.170;14.572;2022-11-03T15:37:10;24.58;;;11.02;;
28714;SDS011;15886;49.170;14.572;2022-11-03T15:39:38;25.50;;;13.70;;
28714;SDS011;15886;49.170;14.572;2022-11-03T15:42:06;24.75;;;14.65;;
28714;SDS011;15886;49.170;14.572;2022-11-03T15:44:35;41.88;;;27.02;;
28714;SDS011;15886;49.170;14.572;2022-11-03T15:47:03;43.70;;;26.42;;